createdAt,value
2022-10-11T00:00:13.422Z,11.13
2022-10-11T00:02:40.744Z,11.14
2022-10-11T00:05:08.427Z,10.99
2022-10-11T00:07:37.120Z,10.94
2022-10-11T00:10:05.687Z,10.96
2022-10-11T00:12:32.963Z,10.87
2022-10-11T00:15:00.164Z,10.86
2022-10-11T00:17:27.977Z,10.86
2022-10-11T00:19:55.184Z,10.87
2022-10-11T00:22:22.390Z,10.80
2022-10-11T00:24:49.554Z,10.82
2022-10-11T00:27:16.730Z,10.79
2022-10-11T00:29:43.914Z,10.75
2022-10-11T00:32:11.462Z,10.70
2022-10-11T00:34:38.626Z,10.66
2022-10-11T00:37:05.845Z,10.67
2022-10-11T00:39:33.233Z,10.52
2022-10-11T00:42:00.592Z,10.55
2022-10-11T00:44:28.972Z,10.53
2022-10-11T00:47:03.751Z,10.50
2022-10-11T00:49:40.968Z,10.45
2022-10-11T00:52:35.153Z,10.41
2022-10-11T00:55:12.030Z,10.35
2022-10-11T00:57:41.781Z,10.32
2022-10-11T01:00:12.736Z,10.26
2022-10-11T01:02:40.997Z,10.19
2022-10-11T01:05:28.221Z,10.13
2022-10-11T01:07:56.557Z,10.06
2022-10-11T01:10:23.939Z,10.07
2022-10-11T01:13:17.875Z,10.06
2022-10-11T01:15:50.571Z,10.01
2022-10-11T01:19:12.387Z,9.95
2022-10-11T01:21:53.341Z,9.85
2022-10-11T01:24:39.050Z,9.82
2022-10-11T01:27:27.178Z,9.79
2022-10-11T01:30:18.878Z,9.81
2022-10-11T01:32:59.962Z,9.76
2022-10-11T01:35:49.723Z,9.73
2022-10-11T01:38:27.943Z,9.67
2022-10-11T01:41:09.518Z,9.61
2022-10-11T01:43:37.537Z,9.51
2022-10-11T01:46:07.402Z,9.46
2022-10-11T01:48:46.923Z,9.50
2022-10-11T01:51:14.107Z,9.45
2022-10-11T01:54:09.921Z,9.41
2022-10-11T01:56:51.969Z,9.36
2022-10-11T01:59:32.001Z,9.37
2022-10-11T02:02:14.460Z,9.32
2022-10-11T02:04:52.278Z,9.31
2022-10-11T02:07:40.554Z,9.27
2022-10-11T02:10:17.133Z,9.23
2022-10-11T02:12:49.219Z,9.20
2022-10-11T02:15:18.205Z,9.19
2022-10-11T02:17:55.631Z,9.20
2022-10-11T02:20:25.732Z,9.19
2022-10-11T02:22:59.228Z,9.19
2022-10-11T02:25:28.550Z,9.15
2022-10-11T02:27:57.027Z,9.10
2022-10-11T02:30:24.221Z,9.06
2022-10-11T02:32:52.397Z,9.09
2022-10-11T02:35:19.735Z,9.07
2022-10-11T02:38:24.242Z,9.06
2022-10-11T02:40:58.684Z,8.98
2022-10-11T02:43:31.661Z,8.94
2022-10-11T02:46:00.705Z,8.94
2022-10-11T02:48:29.309Z,8.93
2022-10-11T02:50:57.498Z,8.90
2022-10-11T02:53:25.513Z,8.84
2022-10-11T02:55:54.375Z,8.81
2022-10-11T02:58:22.590Z,8.79
2022-10-11T03:00:49.865Z,8.73
2022-10-11T03:03:17.129Z,8.72
2022-10-11T03:05:44.324Z,8.66
2022-10-11T03:08:13.696Z,8.65
2022-10-11T03:10:40.959Z,8.61
2022-10-11T03:13:08.381Z,8.61
2022-10-11T03:15:35.624Z,8.66
2022-10-11T03:18:02.804Z,8.62
2022-10-11T03:20:29.976Z,8.65
2022-10-11T03:22:57.186Z,8.66
2022-10-11T03:25:24.377Z,8.63
2022-10-11T03:27:51.566Z,8.62
2022-10-11T03:30:20.071Z,8.60
2022-10-11T03:32:47.257Z,8.62
2022-10-11T03:35:14.579Z,8.67
2022-10-11T03:37:41.750Z,8.58
2022-10-11T03:40:10.864Z,8.59
2022-10-11T03:42:38.410Z,8.59
2022-10-11T03:45:08.220Z,8.59
2022-10-11T03:47:36.901Z,8.62
2022-10-11T03:50:05.800Z,8.55
2022-10-11T03:52:32.983Z,8.54
2022-10-11T03:55:00.158Z,8.49
2022-10-11T03:57:27.564Z,8.53
2022-10-11T03:59:54.731Z,8.50
2022-10-11T04:02:22.069Z,8.50
2022-10-11T04:04:49.242Z,8.50
2022-10-11T04:07:16.495Z,8.48
2022-10-11T04:09:43.692Z,8.46
2022-10-11T04:12:10.909Z,8.43
2022-10-11T04:14:38.280Z,8.44
2022-10-11T04:17:05.452Z,8.44
2022-10-11T04:19:32.703Z,8.29
2022-10-11T04:21:59.983Z,8.31
2022-10-11T04:24:27.185Z,8.24
2022-10-11T04:26:54.356Z,8.29
2022-10-11T04:29:21.576Z,8.31
2022-10-11T04:31:48.949Z,8.32
2022-10-11T04:34:16.448Z,8.28
2022-10-11T04:36:47.550Z,8.27
2022-10-11T04:39:16.872Z,8.21
2022-10-11T04:41:44.273Z,8.21
2022-10-11T04:44:11.451Z,8.21
2022-10-11T04:46:38.626Z,8.24
2022-10-11T04:49:06.199Z,8.22
2022-10-11T04:51:33.856Z,8.22
2022-10-11T04:54:01.158Z,8.07
2022-10-11T04:56:30.530Z,8.12
2022-10-11T04:58:57.731Z,8.10
2022-10-11T05:01:25.178Z,8.12
2022-10-11T05:03:52.695Z,8.13
2022-10-11T05:06:19.884Z,8.10
2022-10-11T05:08:47.238Z,8.11
2022-10-11T05:11:16.306Z,8.11
2022-10-11T05:13:44.444Z,8.12
2022-10-11T05:16:12.734Z,8.08
2022-10-11T05:18:40.512Z,8.03
2022-10-11T05:21:16.330Z,8.04
2022-10-11T05:23:43.526Z,8.02
2022-10-11T05:26:10.966Z,8.02
2022-10-11T05:28:38.305Z,8.00
2022-10-11T05:31:05.709Z,8.00
2022-10-11T05:33:33.861Z,7.97
2022-10-11T05:36:01.071Z,8.00
2022-10-11T05:38:28.299Z,8.01
2022-10-11T05:40:58.440Z,8.00
2022-10-11T05:43:25.667Z,7.98
2022-10-11T05:45:52.837Z,8.03
2022-10-11T05:48:20.192Z,8.07
2022-10-11T05:50:47.654Z,8.09
2022-10-11T05:53:14.865Z,8.10
2022-10-11T05:55:43.175Z,8.10
2022-10-11T05:58:14.723Z,8.12
2022-10-11T06:00:41.956Z,8.17
2022-10-11T06:03:11.413Z,8.23
2022-10-11T06:05:38.725Z,8.25
2022-10-11T06:08:08.515Z,8.29
2022-10-11T06:10:36.513Z,8.32
2022-10-11T06:13:03.828Z,8.39
2022-10-11T06:15:31.074Z,8.44
2022-10-11T06:17:59.544Z,8.44
2022-10-11T06:20:27.077Z,8.43
2022-10-11T06:22:54.361Z,8.43
2022-10-11T06:25:21.587Z,8.51
2022-10-11T06:27:48.784Z,8.53
2022-10-11T06:30:16.120Z,8.59
2022-10-11T06:32:43.333Z,8.66
2022-10-11T06:35:10.567Z,8.75
2022-10-11T06:37:37.735Z,8.77
2022-10-11T06:40:05.303Z,8.80
2022-10-11T06:42:32.551Z,8.86
2022-10-11T06:45:00.947Z,8.98
2022-10-11T06:47:28.121Z,9.03
2022-10-11T06:49:55.294Z,9.17
2022-10-11T06:52:22.449Z,9.21
2022-10-11T06:54:49.621Z,9.38
2022-10-11T06:57:16.862Z,9.51
2022-10-11T06:59:44.016Z,9.64
2022-10-11T07:02:11.232Z,9.74
2022-10-11T07:04:39.315Z,9.88
2022-10-11T07:07:07.753Z,10.03
2022-10-11T07:09:35.167Z,10.10
2022-10-11T07:12:02.387Z,10.19
2022-10-11T07:14:29.579Z,10.28
2022-10-11T07:16:57.554Z,10.37
2022-10-11T07:19:24.815Z,10.55
2022-10-11T07:21:52.055Z,10.63
2022-10-11T07:24:19.315Z,10.73
2022-10-11T07:26:46.462Z,10.84
2022-10-11T07:29:13.703Z,10.99
2022-10-11T07:31:42.514Z,11.10
2022-10-11T07:34:10.475Z,11.23
2022-10-11T07:36:37.857Z,11.35
2022-10-11T07:39:07.003Z,11.49
2022-10-11T07:41:34.643Z,11.53
2022-10-11T07:44:03.231Z,11.64
2022-10-11T07:46:31.268Z,11.69
2022-10-11T07:48:58.566Z,11.78
2022-10-11T07:51:26.510Z,11.76
2022-10-11T07:54:08.672Z,11.89
2022-10-11T07:56:36.635Z,11.99
2022-10-11T07:59:03.961Z,12.07
2022-10-11T08:01:32.107Z,12.15
2022-10-11T08:04:00.726Z,12.20
2022-10-11T08:06:31.683Z,12.33
2022-10-11T08:09:00.556Z,12.37
2022-10-11T08:11:34.135Z,12.47
2022-10-11T08:14:02.099Z,12.53
2022-10-11T08:16:29.594Z,12.66
2022-10-11T08:18:57.216Z,12.67
2022-10-11T08:21:26.903Z,12.80
2022-10-11T08:23:54.244Z,13.00
2022-10-11T08:26:21.825Z,13.11
2022-10-11T08:28:49.470Z,13.19
2022-10-11T08:31:18.910Z,13.37
2022-10-11T08:33:46.262Z,13.52
2022-10-11T08:36:13.612Z,13.53
2022-10-11T08:38:41.050Z,13.62
2022-10-11T08:41:32.026Z,13.71
2022-10-11T08:44:51.796Z,13.86
2022-10-11T08:47:41.257Z,13.92
2022-10-11T08:50:22.485Z,14.11
2022-10-11T08:52:55.721Z,14.14
2022-10-11T08:55:32.317Z,14.34
2022-10-11T08:57:59.827Z,14.34
2022-10-11T09:00:31.271Z,14.45
2022-10-11T09:03:14.296Z,14.40
2022-10-11T09:06:01.217Z,14.44
2022-10-11T09:08:53.597Z,14.57
2022-10-11T09:12:14.866Z,14.60
2022-10-11T09:14:57.115Z,14.72
2022-10-11T09:17:46.168Z,14.82
2022-10-11T09:20:30.390Z,14.96
2022-10-11T09:23:04.117Z,14.88
2022-10-11T09:25:55.096Z,15.03
2022-10-11T09:28:30.429Z,14.99
2022-10-11T09:30:58.846Z,15.00
2022-10-11T09:33:34.722Z,15.05
2022-10-11T09:36:04.568Z,15.13
2022-10-11T09:38:51.208Z,15.14
2022-10-11T09:41:29.263Z,15.13
2022-10-11T09:43:56.550Z,15.27
2022-10-11T09:46:37.984Z,15.32
2022-10-11T09:49:09.333Z,15.31
2022-10-11T09:51:37.466Z,15.56
2022-10-11T09:54:07.582Z,15.74
2022-10-11T09:56:41.800Z,15.70
2022-10-11T09:59:28.953Z,15.78
2022-10-11T10:02:14.544Z,15.96
2022-10-11T10:05:01.913Z,15.87
2022-10-11T10:07:31.338Z,16.00
2022-10-11T10:10:11.013Z,15.91
2022-10-11T10:12:47.471Z,15.95
2022-10-11T10:15:18.947Z,15.99
2022-10-11T10:17:53.871Z,16.17
2022-10-11T10:20:24.551Z,16.41
2022-10-11T10:22:52.541Z,16.46
2022-10-11T10:25:30.658Z,16.49
2022-10-11T10:28:00.226Z,16.63
2022-10-11T10:30:30.743Z,16.51
2022-10-11T10:33:12.366Z,16.53
2022-10-11T10:35:41.834Z,16.45
2022-10-11T10:38:20.717Z,16.52
2022-10-11T10:41:04.179Z,16.57
2022-10-11T10:43:36.580Z,16.74
2022-10-11T10:46:26.646Z,16.91
2022-10-11T10:49:53.612Z,16.63
2022-10-11T10:52:30.505Z,16.49
2022-10-11T10:55:15.849Z,16.58
2022-10-11T10:57:57.933Z,16.82
2022-10-11T11:00:25.436Z,17.03
2022-10-11T11:03:04.218Z,17.27
2022-10-11T11:05:48.451Z,17.44
2022-10-11T11:08:53.507Z,17.44
2022-10-11T11:11:44.247Z,17.57
2022-10-11T11:14:21.899Z,17.66
2022-10-11T11:17:13.103Z,17.63
2022-10-11T11:19:53.320Z,17.39
2022-10-11T11:22:32.879Z,17.59
2022-10-11T11:25:18.879Z,17.82
2022-10-11T11:28:09.126Z,17.91
2022-10-11T11:30:48.368Z,17.91
2022-10-11T11:33:48.689Z,17.91
2022-10-11T11:36:26.729Z,17.81
2022-10-11T11:39:01.954Z,17.67
2022-10-11T11:41:39.655Z,17.56
2022-10-11T11:44:16.321Z,17.44
2022-10-11T11:46:52.945Z,17.36
2022-10-11T11:49:41.861Z,17.22
2022-10-11T11:52:36.188Z,17.07
2022-10-11T11:55:17.741Z,17.02
2022-10-11T11:58:02.093Z,17.07
2022-10-11T12:00:40.012Z,17.31
2022-10-11T12:03:22.159Z,17.32
2022-10-11T12:06:14.587Z,17.47
2022-10-11T12:08:43.968Z,17.58
2022-10-11T12:11:35.235Z,17.69
2022-10-11T12:14:04.605Z,17.62
2022-10-11T12:16:31.770Z,17.63
2022-10-11T12:19:03.589Z,17.77
2022-10-11T12:21:39.312Z,17.64
2022-10-11T12:24:22.979Z,17.43
2022-10-11T12:26:55.439Z,17.46
2022-10-11T12:29:44.784Z,17.58
2022-10-11T12:32:35.042Z,17.69
2022-10-11T12:35:30.248Z,17.79
2022-10-11T12:38:22.831Z,17.90
2022-10-11T12:40:54.716Z,17.95
2022-10-11T12:43:48.220Z,17.92
2022-10-11T12:46:31.243Z,17.81
2022-10-11T12:49:38.684Z,17.65
2022-10-11T12:52:18.461Z,17.40
2022-10-11T12:55:24.774Z,17.25
2022-10-11T12:58:25.647Z,17.14
2022-10-11T13:01:04.656Z,17.01
2022-10-11T13:03:44.031Z,16.80
2022-10-11T13:06:25.153Z,16.59
2022-10-11T13:09:05.642Z,16.51
2022-10-11T13:11:39.366Z,16.50
2022-10-11T13:14:46.481Z,16.38
2022-10-11T13:17:48.784Z,16.34
2022-10-11T13:20:24.040Z,16.25
2022-10-11T13:22:53.762Z,16.24
2022-10-11T13:25:24.663Z,16.12
2022-10-11T13:31:13.684Z,16.02
2022-10-11T13:33:45.945Z,15.98
2022-10-11T13:36:21.900Z,15.92
2022-10-11T13:38:57.966Z,15.80
2022-10-11T13:41:30.957Z,15.78
2022-10-11T13:44:00.462Z,15.72
2022-10-11T13:46:28.834Z,15.79
2022-10-11T13:49:04.531Z,15.69
2022-10-11T13:51:38.421Z,15.69
2022-10-11T13:54:13.599Z,15.68
2022-10-11T14:00:26.934Z,15.63
2022-10-11T14:03:15.110Z,15.46
2022-10-11T14:05:57.047Z,15.47
2022-10-11T14:08:47.280Z,15.35
2022-10-11T14:11:37.364Z,15.26
2022-10-11T14:18:41.940Z,15.29
2022-10-11T14:24:57.176Z,15.28
2022-10-11T14:27:28.368Z,15.26
2022-10-11T14:30:23.965Z,15.19
2022-10-11T14:33:00.373Z,15.22
2022-10-11T14:35:30.533Z,15.19
2022-10-11T14:37:57.857Z,15.21
2022-10-11T14:40:29.895Z,15.12
2022-10-11T14:42:57.381Z,15.03
2022-10-11T14:48:12.745Z,14.97
2022-10-11T14:50:48.050Z,14.89
2022-10-11T14:53:18.133Z,14.85
2022-10-11T14:56:20.392Z,14.80
2022-10-11T14:58:48.762Z,14.69
2022-10-11T15:01:17.297Z,14.71
2022-10-11T15:03:51.827Z,14.71
2022-10-11T15:06:32.122Z,14.60
2022-10-11T15:09:00.159Z,14.60
2022-10-11T15:11:27.448Z,14.64
2022-10-11T15:13:54.785Z,14.56
2022-10-11T15:16:24.026Z,14.48
2022-10-11T15:18:52.026Z,14.45
2022-10-11T15:21:25.170Z,14.38
2022-10-11T15:23:53.313Z,14.34
2022-10-11T15:26:24.000Z,14.36
2022-10-11T15:28:51.983Z,14.26
2022-10-11T15:31:21.553Z,14.29
2022-10-11T15:33:52.538Z,14.18
2022-10-11T15:36:22.327Z,14.18
2022-10-11T15:38:50.409Z,14.16
2022-10-11T15:41:19.904Z,14.18
2022-10-11T15:43:49.461Z,14.13
2022-10-11T15:46:26.032Z,14.07
2022-10-11T15:48:54.891Z,14.02
2022-10-11T15:51:34.957Z,13.99
2022-10-11T15:54:02.593Z,13.88
2022-10-11T15:56:33.694Z,13.85
2022-10-11T15:59:02.057Z,13.79
2022-10-11T16:01:29.447Z,13.75
2022-10-11T16:04:16.474Z,13.70
2022-10-11T16:06:46.429Z,13.62
2022-10-11T16:09:13.938Z,13.60
2022-10-11T16:11:41.319Z,13.53
2022-10-11T16:14:09.169Z,13.47
2022-10-11T16:16:38.020Z,13.46
2022-10-11T16:19:05.247Z,13.40
2022-10-11T16:21:32.976Z,13.32
2022-10-11T16:24:00.296Z,13.25
2022-10-11T16:26:44.781Z,13.22
2022-10-11T16:29:50.240Z,13.12
2022-10-11T16:32:17.476Z,13.02
2022-10-11T16:34:44.891Z,12.92
2022-10-11T16:37:13.008Z,12.87
2022-10-11T16:39:40.849Z,12.74
2022-10-11T16:42:08.114Z,12.65
2022-10-11T16:44:37.922Z,12.61
2022-10-11T16:47:06.006Z,12.44
2022-10-11T16:49:33.373Z,12.31
2022-10-11T16:52:02.655Z,12.27
2022-10-11T16:54:32.935Z,12.12
2022-10-11T16:57:00.758Z,11.94
2022-10-11T16:59:28.578Z,11.87
2022-10-11T17:01:59.271Z,11.81
2022-10-11T17:04:26.562Z,11.75
2022-10-11T17:06:55.100Z,11.70
2022-10-11T17:09:22.342Z,11.59
2022-10-11T17:11:49.611Z,11.56
2022-10-11T17:14:17.075Z,11.52
2022-10-11T17:16:44.929Z,11.51
2022-10-11T17:19:14.783Z,11.40
2022-10-11T17:21:44.315Z,11.24
2022-10-11T17:24:12.258Z,11.27
2022-10-11T17:26:41.956Z,11.27
2022-10-11T17:29:14.705Z,11.21
2022-10-11T17:31:48.078Z,11.15
2022-10-11T17:34:16.957Z,11.07
2022-10-11T17:36:44.243Z,10.99
2022-10-11T17:39:17.746Z,10.94
2022-10-11T17:41:45.384Z,10.96
2022-10-11T17:44:13.497Z,10.93
2022-10-11T17:46:46.052Z,10.84
2022-10-11T17:49:13.617Z,10.70
2022-10-11T17:51:42.018Z,10.67
2022-10-11T17:54:13.257Z,10.48
2022-10-11T17:56:41.827Z,10.44
2022-10-11T17:59:15.009Z,10.36
2022-10-11T18:01:42.389Z,10.31
2022-10-11T18:04:16.463Z,10.24
2022-10-11T18:06:46.679Z,10.23
2022-10-11T18:09:16.611Z,10.20
2022-10-11T18:11:44.204Z,10.15
2022-10-11T18:14:11.466Z,10.09
2022-10-11T18:16:40.740Z,10.04
2022-10-11T18:19:11.604Z,10.03
2022-10-11T18:21:39.129Z,9.98
2022-10-11T18:24:13.151Z,9.96
2022-10-11T18:26:40.672Z,9.93
2022-10-11T18:29:08.256Z,9.93
2022-10-11T18:31:36.755Z,9.96
2022-10-11T18:34:10.909Z,9.95
2022-10-11T18:36:38.926Z,9.94
2022-10-11T18:39:08.180Z,9.84
2022-10-11T18:41:35.652Z,9.73
2022-10-11T18:44:05.665Z,9.54
2022-10-11T18:46:33.519Z,9.44
2022-10-11T18:49:02.058Z,9.36
2022-10-11T18:51:31.822Z,9.36
2022-10-11T18:53:59.641Z,9.26
2022-10-11T18:56:28.831Z,9.26
2022-10-11T18:58:57.229Z,9.29
2022-10-11T19:01:28.186Z,9.28
2022-10-11T19:03:57.367Z,9.19
2022-10-11T19:06:37.737Z,9.14
2022-10-11T19:09:13.192Z,9.08
2022-10-11T19:11:41.055Z,9.11
2022-10-11T19:14:11.514Z,9.01
2022-10-11T19:16:40.944Z,8.96
2022-10-11T19:19:09.941Z,8.95
2022-10-11T19:21:37.829Z,8.84
2022-10-11T19:24:06.595Z,8.74
2022-10-11T19:26:38.915Z,8.75
2022-10-11T19:29:20.796Z,8.72
2022-10-11T19:31:53.934Z,8.62
2022-10-11T19:34:22.498Z,8.62
2022-10-11T19:36:52.793Z,8.57
2022-10-11T19:39:21.726Z,8.50
2022-10-11T19:41:49.360Z,8.51
2022-10-11T19:44:17.099Z,8.54
2022-10-11T19:46:51.516Z,8.52
2022-10-11T19:49:22.417Z,8.46
2022-10-11T19:51:49.612Z,8.38
2022-10-11T19:54:16.855Z,8.33
2022-10-11T19:56:44.637Z,8.30
2022-10-11T19:59:14.728Z,8.33
2022-10-11T20:01:43.276Z,8.28
2022-10-11T20:04:33.074Z,8.20
2022-10-11T20:07:00.151Z,8.17
2022-10-11T20:09:30.194Z,8.17
2022-10-11T20:11:58.043Z,8.15
2022-10-11T20:14:25.312Z,8.21
2022-10-11T20:16:52.543Z,8.20
2022-10-11T20:19:22.055Z,8.19
2022-10-11T20:21:52.139Z,8.20
2022-10-11T20:24:23.022Z,8.15
2022-10-11T20:26:50.352Z,8.11
2022-10-11T20:29:18.419Z,8.04
2022-10-11T20:31:45.851Z,8.03
2022-10-11T20:34:13.488Z,7.97
2022-10-11T20:36:40.933Z,7.91
2022-10-11T20:39:10.915Z,7.84
2022-10-11T20:41:44.703Z,7.75
2022-10-11T20:44:13.336Z,7.62
2022-10-11T20:46:45.180Z,7.51
2022-10-11T20:49:13.555Z,7.56
2022-10-11T20:51:41.948Z,7.56
2022-10-11T20:54:09.796Z,7.58
2022-10-11T20:56:37.658Z,7.57
2022-10-11T20:59:06.248Z,7.69
2022-10-11T21:01:39.900Z,7.77
2022-10-11T21:04:08.537Z,7.72
2022-10-11T21:06:35.802Z,7.57
2022-10-11T21:09:03.171Z,7.48
2022-10-11T21:11:33.508Z,7.42
2022-10-11T21:14:06.505Z,7.36
2022-10-11T21:16:34.459Z,7.28
2022-10-11T21:19:02.260Z,7.28
2022-10-11T21:21:30.543Z,7.28
2022-10-11T21:24:00.112Z,7.23
2022-10-11T21:26:28.373Z,7.21
2022-10-11T21:28:57.073Z,7.15
2022-10-11T21:31:24.434Z,7.02
2022-10-11T21:33:51.878Z,6.97
2022-10-11T21:36:21.006Z,6.93
2022-10-11T21:38:49.316Z,6.93
2022-10-11T21:41:21.813Z,6.89
2022-10-11T21:43:49.508Z,6.82
2022-10-11T21:46:19.319Z,6.80
2022-10-11T21:48:47.962Z,6.85
2022-10-11T21:51:17.676Z,6.85
2022-10-11T21:53:44.886Z,6.83
2022-10-11T21:56:12.139Z,6.85
2022-10-11T21:58:39.394Z,6.84
2022-10-11T22:01:06.943Z,6.84
2022-10-11T22:03:34.355Z,6.82
2022-10-11T22:06:05.254Z,6.83
2022-10-11T22:08:32.537Z,6.83
2022-10-11T22:11:01.701Z,6.78
2022-10-11T22:13:30.655Z,6.75
2022-10-11T22:15:57.948Z,6.78
2022-10-11T22:18:25.271Z,6.80
2022-10-11T22:20:52.748Z,6.74
2022-10-11T22:23:20.168Z,6.63
2022-10-11T22:25:47.353Z,6.60
2022-10-11T22:28:14.613Z,6.51
2022-10-11T22:30:41.959Z,6.45
2022-10-11T22:33:09.291Z,6.37
2022-10-11T22:35:37.794Z,6.33
2022-10-11T22:38:06.251Z,6.32
2022-10-11T22:40:33.757Z,6.33
2022-10-11T22:43:02.064Z,6.32
2022-10-11T22:45:29.531Z,6.29
2022-10-11T22:47:57.178Z,6.26
2022-10-11T22:50:24.402Z,6.25
2022-10-11T22:52:51.615Z,6.19
2022-10-11T22:55:20.307Z,6.12
2022-10-11T22:57:47.636Z,6.01
2022-10-11T23:00:15.731Z,6.06
2022-10-11T23:02:42.966Z,6.11
2022-10-11T23:05:10.313Z,6.12
2022-10-11T23:07:38.409Z,6.13
2022-10-11T23:10:06.264Z,5.96
2022-10-11T23:12:39.245Z,5.97
2022-10-11T23:15:07.049Z,6.00
2022-10-11T23:17:34.651Z,5.97
2022-10-11T23:20:02.088Z,5.95
2022-10-11T23:22:30.607Z,5.95
2022-10-11T23:24:58.393Z,5.95
2022-10-11T23:27:25.807Z,5.91
2022-10-11T23:29:53.319Z,5.92
2022-10-11T23:32:20.693Z,5.91
2022-10-11T23:34:48.307Z,5.87
2022-10-11T23:37:15.508Z,5.89
2022-10-11T23:39:42.750Z,5.88
2022-10-11T23:42:09.942Z,5.82
2022-10-11T23:44:37.103Z,5.84
2022-10-11T23:47:04.355Z,5.80
2022-10-11T23:49:31.559Z,5.77
2022-10-11T23:51:58.726Z,5.79
2022-10-11T23:54:26.257Z,5.75
2022-10-11T23:56:54.729Z,5.74
2022-10-11T23:59:21.908Z,5.70
